createdAt,value
2022-11-22T00:01:49.863Z,10.40
2022-11-22T00:04:35.596Z,14.73
2022-11-22T00:07:21.364Z,12.17
2022-11-22T00:10:09.159Z,11.70
2022-11-22T00:12:54.975Z,12.63
2022-11-22T00:15:42.367Z,17.53
2022-11-22T00:18:31.360Z,21.77
2022-11-22T00:21:19.747Z,11.30
2022-11-22T00:24:05.345Z,13.07
2022-11-22T00:26:50.838Z,12.23
2022-11-22T00:29:36.244Z,12.97
2022-11-22T00:32:21.829Z,14.50
2022-11-22T00:35:07.729Z,16.23
2022-11-22T00:37:53.343Z,13.30
2022-11-22T00:40:38.684Z,12.80
2022-11-22T00:43:24.452Z,12.80
2022-11-22T00:46:12.291Z,11.37
2022-11-22T00:48:59.657Z,12.13
2022-11-22T00:51:47.063Z,19.00
2022-11-22T00:54:32.210Z,11.60
2022-11-22T00:57:20.386Z,16.70
2022-11-22T01:00:07.252Z,12.83
2022-11-22T01:02:55.428Z,14.63
2022-11-22T01:05:43.886Z,11.83
2022-11-22T01:08:29.217Z,14.27
2022-11-22T01:11:17.858Z,14.43
2022-11-22T01:14:03.740Z,15.93
2022-11-22T01:16:49.613Z,18.53
2022-11-22T01:19:35.058Z,14.77
2022-11-22T01:22:20.926Z,9.47
2022-11-22T01:25:09.610Z,15.10
2022-11-22T01:27:57.055Z,12.43
2022-11-22T01:30:45.482Z,15.97
2022-11-22T01:33:31.005Z,16.20
2022-11-22T01:36:16.646Z,15.43
2022-11-22T01:39:02.153Z,12.13
2022-11-22T01:41:47.678Z,10.63
2022-11-22T01:44:36.037Z,16.07
2022-11-22T01:47:25.232Z,14.23
2022-11-22T01:50:15.750Z,17.60
2022-11-22T01:53:07.068Z,21.27
2022-11-22T01:55:53.582Z,12.53
2022-11-22T01:58:41.658Z,16.67
2022-11-22T02:01:28.613Z,16.13
2022-11-22T02:04:21.874Z,14.33
2022-11-22T02:07:29.351Z,14.77
2022-11-22T02:10:21.344Z,13.30
2022-11-22T02:13:08.003Z,13.93
2022-11-22T02:15:54.399Z,13.73
2022-11-22T02:18:39.985Z,14.37
2022-11-22T02:21:25.210Z,13.17
2022-11-22T02:24:25.764Z,16.57
2022-11-22T02:27:11.278Z,13.47
2022-11-22T02:29:56.702Z,13.07
2022-11-22T02:32:41.921Z,12.43
2022-11-22T02:35:29.069Z,12.33
2022-11-22T02:38:21.837Z,12.43
2022-11-22T02:41:13.142Z,13.80
2022-11-22T02:43:58.486Z,14.50
2022-11-22T02:46:55.120Z,13.00
2022-11-22T02:49:40.415Z,13.00
2022-11-22T02:52:25.819Z,14.17
2022-11-22T02:55:13.930Z,14.33
2022-11-22T02:57:59.128Z,17.17
2022-11-22T03:00:44.623Z,13.67
2022-11-22T03:03:33.435Z,15.30
2022-11-22T03:06:18.763Z,14.03
2022-11-22T03:09:04.217Z,12.83
2022-11-22T03:11:53.739Z,13.80
2022-11-22T03:14:38.874Z,14.77
2022-11-22T03:17:24.613Z,16.00
2022-11-22T03:20:10.153Z,12.87
2022-11-22T03:22:55.965Z,10.63
2022-11-22T03:25:41.997Z,11.60
2022-11-22T03:28:27.194Z,15.77
2022-11-22T03:31:12.472Z,13.37
2022-11-22T03:34:01.749Z,12.07
2022-11-22T03:36:46.875Z,13.10
2022-11-22T03:39:32.471Z,12.53
2022-11-22T03:42:21.830Z,16.97
2022-11-22T03:45:07.958Z,11.30
2022-11-22T03:47:53.922Z,12.53
2022-11-22T03:50:39.533Z,13.50
2022-11-22T03:53:24.986Z,14.00
2022-11-22T03:56:10.690Z,13.90
2022-11-22T03:58:56.039Z,14.40
2022-11-22T04:01:43.826Z,14.40
2022-11-22T04:04:32.592Z,13.33
2022-11-22T04:07:18.039Z,15.90
2022-11-22T04:10:04.478Z,13.90
2022-11-22T04:12:52.524Z,18.17
2022-11-22T04:15:37.957Z,25.40
2022-11-22T04:18:23.096Z,16.83
2022-11-22T04:21:26.933Z,14.63
2022-11-22T04:24:31.124Z,15.60
2022-11-22T04:27:16.420Z,15.20
2022-11-22T04:30:02.644Z,17.80
2022-11-22T04:32:52.364Z,19.03
2022-11-22T04:35:41.047Z,16.83
2022-11-22T04:38:26.778Z,13.20
2022-11-22T04:41:14.683Z,19.50
2022-11-22T04:44:19.142Z,15.40
2022-11-22T04:47:04.680Z,17.47
2022-11-22T04:49:50.556Z,15.30
2022-11-22T04:52:54.404Z,20.80
2022-11-22T04:55:39.955Z,16.57
2022-11-22T04:58:25.181Z,15.20
2022-11-22T05:01:11.061Z,14.90
2022-11-22T05:03:57.157Z,21.87
2022-11-22T05:06:43.254Z,13.97
2022-11-22T05:09:31.152Z,22.70
2022-11-22T05:12:19.530Z,19.97
2022-11-22T05:15:06.146Z,19.87
2022-11-22T05:17:51.878Z,19.97
2022-11-22T05:20:37.976Z,22.23
2022-11-22T05:23:42.886Z,18.03
2022-11-22T05:26:36.266Z,16.73
2022-11-22T05:29:21.611Z,21.70
2022-11-22T05:32:06.909Z,15.00
2022-11-22T05:34:54.498Z,17.90
2022-11-22T05:37:39.985Z,18.80
2022-11-22T05:40:26.281Z,18.57
2022-11-22T05:43:11.808Z,17.53
2022-11-22T05:46:04.275Z,20.17
2022-11-22T05:48:51.885Z,17.40
2022-11-22T05:51:37.089Z,12.93
2022-11-22T05:54:22.546Z,19.40
2022-11-22T05:57:08.026Z,24.17
2022-11-22T05:59:54.458Z,17.90
2022-11-22T06:02:40.029Z,18.30
2022-11-22T06:05:25.377Z,16.03
2022-11-22T06:08:11.914Z,21.30
2022-11-22T06:11:08.596Z,20.50
2022-11-22T06:13:57.220Z,16.97
2022-11-22T06:16:45.224Z,18.43
2022-11-22T06:19:30.526Z,18.70
2022-11-22T06:22:16.038Z,15.13
2022-11-22T06:25:01.301Z,19.30
2022-11-22T06:27:49.175Z,20.40
2022-11-22T06:30:36.532Z,21.47
2022-11-22T06:33:21.880Z,20.87
2022-11-22T06:36:15.591Z,17.70
2022-11-22T06:39:03.529Z,14.20
2022-11-22T06:41:49.225Z,19.47
2022-11-22T06:44:34.790Z,14.37
2022-11-22T06:47:22.392Z,16.17
2022-11-22T06:50:08.237Z,17.63
2022-11-22T06:52:56.188Z,17.20
2022-11-22T06:55:50.429Z,21.33
2022-11-22T06:58:37.322Z,16.10
2022-11-22T07:01:28.291Z,16.63
2022-11-22T07:04:14.591Z,16.97
2022-11-22T07:06:59.905Z,13.73
2022-11-22T07:09:45.418Z,18.53
2022-11-22T07:12:31.142Z,18.53
2022-11-22T07:15:18.789Z,19.00
2022-11-22T07:18:04.162Z,15.40
2022-11-22T07:20:50.240Z,15.40
2022-11-22T07:23:35.938Z,13.97
2022-11-22T07:26:23.647Z,19.80
2022-11-22T07:29:09.380Z,14.63
2022-11-22T07:31:55.939Z,17.60
2022-11-22T07:34:43.523Z,16.27
2022-11-22T07:37:32.226Z,19.70
2022-11-22T07:40:19.845Z,17.13
2022-11-22T07:43:07.325Z,14.00
2022-11-22T07:45:52.556Z,18.83
2022-11-22T07:48:38.431Z,21.53
2022-11-22T07:51:23.997Z,15.33
2022-11-22T07:54:13.204Z,16.07
2022-11-22T07:56:58.883Z,17.97
2022-11-22T07:59:44.272Z,13.23
2022-11-22T08:02:29.795Z,18.07
2022-11-22T08:05:16.177Z,17.40
2022-11-22T08:08:01.357Z,17.67
2022-11-22T08:10:46.813Z,17.77
2022-11-22T08:13:32.978Z,22.50
2022-11-22T08:16:18.788Z,19.27
2022-11-22T08:19:05.081Z,19.00
2022-11-22T08:21:54.016Z,17.80
2022-11-22T08:24:45.703Z,15.07
2022-11-22T08:27:33.054Z,19.07
2022-11-22T08:30:20.954Z,16.10
2022-11-22T08:33:06.586Z,18.30
2022-11-22T08:35:51.938Z,17.60
2022-11-22T08:38:37.447Z,18.87
2022-11-22T08:41:23.119Z,18.20
2022-11-22T08:44:10.709Z,16.60
2022-11-22T08:46:56.505Z,17.13
2022-11-22T08:49:41.800Z,20.90
2022-11-22T08:52:27.223Z,17.23
2022-11-22T08:55:14.786Z,18.97
2022-11-22T08:58:02.656Z,19.13
2022-11-22T09:00:48.175Z,20.60
2022-11-22T09:03:37.545Z,16.00
2022-11-22T09:09:43.945Z,16.10
2022-11-22T09:12:29.747Z,21.37
2022-11-22T09:15:17.467Z,20.13
2022-11-22T09:18:04.278Z,22.00
2022-11-22T09:20:49.550Z,16.90
2022-11-22T09:23:36.111Z,22.30
2022-11-22T09:26:25.228Z,21.83
2022-11-22T09:29:10.960Z,26.63
2022-11-22T09:31:57.243Z,18.47
2022-11-22T09:34:42.725Z,21.80
2022-11-22T09:37:28.406Z,20.73
2022-11-22T09:40:15.200Z,21.63
2022-11-22T09:43:12.369Z,22.40
2022-11-22T09:46:09.026Z,27.63
2022-11-22T09:49:15.469Z,23.57
2022-11-22T09:52:17.282Z,22.27
2022-11-22T09:55:18.818Z,21.83
2022-11-22T09:58:30.653Z,20.40
2022-11-22T10:01:22.070Z,21.30
2022-11-22T10:04:10.427Z,23.87
2022-11-22T10:07:19.737Z,20.90
2022-11-22T10:10:12.001Z,20.90
2022-11-22T10:13:02.064Z,19.17
2022-11-22T10:16:10.713Z,24.17
2022-11-22T10:19:13.188Z,19.43
2022-11-22T10:21:58.431Z,20.13
2022-11-22T10:24:43.883Z,28.00
2022-11-22T10:27:34.872Z,19.33
2022-11-22T10:30:21.825Z,20.93
2022-11-22T10:33:27.960Z,23.53
2022-11-22T10:36:28.075Z,22.40
2022-11-22T10:39:51.101Z,19.70
2022-11-22T10:43:02.198Z,27.17
2022-11-22T10:45:54.775Z,28.90
2022-11-22T10:48:55.629Z,24.60
2022-11-22T10:52:00.712Z,21.07
2022-11-22T10:55:04.518Z,24.37
2022-11-22T10:57:58.750Z,19.50
2022-11-22T11:00:56.612Z,26.40
2022-11-22T11:03:46.199Z,22.00
2022-11-22T11:10:10.781Z,24.23
2022-11-22T11:13:01.879Z,21.13
2022-11-22T11:15:56.432Z,22.57
2022-11-22T11:18:56.339Z,21.40
2022-11-22T11:21:41.675Z,44.77
2022-11-22T11:24:30.672Z,21.93
2022-11-22T11:27:19.398Z,25.67
2022-11-22T11:30:05.395Z,22.00
2022-11-22T11:32:56.362Z,22.33
2022-11-22T11:35:47.164Z,26.17
2022-11-22T11:38:44.746Z,19.80
2022-11-22T11:41:38.879Z,21.97
2022-11-22T11:44:31.869Z,24.43
2022-11-22T11:47:35.912Z,23.40
2022-11-22T11:50:24.878Z,26.53
2022-11-22T11:53:25.620Z,26.17
2022-11-22T11:56:32.059Z,22.20
2022-11-22T11:59:20.088Z,23.50
2022-11-22T12:02:19.603Z,26.93
2022-11-22T12:05:15.161Z,17.57
2022-11-22T12:08:03.777Z,23.47
2022-11-22T12:10:57.961Z,21.10
2022-11-22T12:17:05.666Z,23.40
2022-11-22T12:20:32.164Z,29.87
2022-11-22T12:23:28.514Z,28.13
2022-11-22T12:26:15.324Z,27.43
2022-11-22T12:29:01.064Z,20.77
2022-11-22T12:32:07.155Z,25.27
2022-11-22T12:35:02.172Z,18.30
2022-11-22T12:38:10.945Z,19.00
2022-11-22T12:41:03.032Z,25.10
2022-11-22T12:44:10.271Z,25.07
2022-11-22T12:47:06.341Z,21.50
2022-11-22T12:50:09.248Z,24.73
2022-11-22T12:52:58.190Z,24.73
2022-11-22T12:55:51.805Z,23.43
2022-11-22T12:58:43.611Z,23.03
2022-11-22T13:01:44.295Z,24.60
2022-11-22T13:04:50.749Z,23.73
2022-11-22T13:07:36.625Z,22.17
2022-11-22T13:10:44.918Z,19.63
2022-11-22T13:13:47.856Z,20.43
2022-11-22T13:16:34.515Z,24.27
2022-11-22T13:19:22.880Z,24.53
2022-11-22T13:22:44.768Z,19.67
2022-11-22T13:25:43.171Z,23.63
2022-11-22T13:28:32.922Z,17.63
2022-11-22T13:31:20.295Z,23.80
2022-11-22T13:34:27.021Z,24.60
2022-11-22T13:37:16.322Z,18.70
2022-11-22T13:40:47.635Z,19.67
2022-11-22T13:43:54.710Z,23.40
2022-11-22T13:47:00.585Z,25.70
2022-11-22T13:49:49.145Z,22.20
2022-11-22T13:52:53.715Z,24.97
2022-11-22T13:55:42.261Z,18.80
2022-11-22T13:58:29.109Z,20.00
2022-11-22T14:01:36.482Z,20.40
2022-11-22T14:04:27.428Z,17.43
2022-11-22T14:07:22.571Z,19.33
2022-11-22T14:10:34.559Z,21.47
2022-11-22T14:13:52.846Z,23.63
2022-11-22T14:17:11.344Z,20.40
2022-11-22T14:20:33.501Z,21.73
2022-11-22T14:24:02.972Z,16.93
2022-11-22T14:27:08.184Z,29.90
2022-11-22T14:30:08.097Z,19.20
2022-11-22T14:32:59.305Z,24.30
2022-11-22T14:36:06.629Z,21.50
2022-11-22T14:38:51.909Z,21.00
2022-11-22T14:41:37.501Z,19.43
2022-11-22T14:44:31.410Z,20.97
2022-11-22T14:47:20.344Z,19.80
2022-11-22T14:50:35.985Z,19.67
2022-11-22T14:53:30.977Z,26.03
2022-11-22T14:56:18.370Z,19.17
2022-11-22T14:59:36.402Z,23.93
2022-11-22T15:03:06.171Z,18.33
2022-11-22T15:09:23.395Z,14.37
2022-11-22T15:09:50.942Z,22.07
2022-11-22T15:13:09.821Z,25.07
2022-11-22T15:57:35.443Z,23.13
2022-11-22T16:00:27.606Z,21.13
2022-11-22T16:03:24.612Z,22.33
2022-11-22T16:06:18.810Z,26.90
2022-11-22T16:09:06.242Z,22.87
2022-11-22T16:12:01.926Z,19.73
2022-11-22T16:14:51.415Z,23.27
2022-11-22T16:17:39.046Z,24.93
2022-11-22T16:20:32.773Z,21.93
2022-11-22T16:23:28.141Z,21.80
2022-11-22T16:26:26.214Z,25.47
2022-11-22T16:29:29.292Z,22.53
2022-11-22T16:32:17.747Z,30.93
2022-11-22T16:35:28.102Z,24.60
2022-11-22T16:38:09.812Z,23.60
2022-11-22T16:40:57.955Z,25.30
2022-11-22T16:43:43.609Z,32.03
2022-11-22T16:46:30.183Z,22.53
2022-11-22T16:49:21.094Z,23.30
2022-11-22T16:52:12.134Z,22.27
2022-11-22T16:55:00.906Z,26.30
2022-11-22T16:57:46.895Z,26.80
2022-11-22T17:00:37.917Z,26.53
2022-11-22T17:03:27.344Z,25.27
2022-11-22T17:06:19.043Z,24.70
2022-11-22T17:09:07.588Z,22.97
2022-11-22T17:11:53.656Z,30.00
2022-11-22T17:14:39.237Z,29.33
2022-11-22T17:17:24.737Z,24.70
2022-11-22T17:20:10.532Z,32.33
2022-11-22T17:22:56.685Z,23.23
2022-11-22T17:25:42.503Z,26.60
2022-11-22T17:28:30.429Z,25.43
2022-11-22T17:31:18.235Z,24.37
2022-11-22T17:34:04.336Z,20.23
2022-11-22T17:36:49.994Z,28.00
2022-11-22T17:39:35.825Z,21.87
2022-11-22T17:42:24.376Z,25.93
2022-11-22T17:45:10.028Z,24.83
2022-11-22T17:47:55.947Z,25.37
2022-11-22T17:50:41.965Z,22.67
2022-11-22T17:53:27.565Z,27.77
2022-11-22T17:56:13.252Z,26.17
2022-11-22T17:58:58.478Z,24.03
2022-11-22T18:01:43.779Z,29.43
2022-11-22T18:04:29.617Z,34.10
2022-11-22T18:07:15.860Z,26.43
2022-11-22T18:10:02.428Z,27.40
2022-11-22T18:13:13.655Z,27.20
2022-11-22T18:16:02.936Z,27.50
2022-11-22T18:18:58.644Z,22.40
2022-11-22T18:21:47.179Z,23.53
2022-11-22T18:24:32.872Z,26.03
2022-11-22T18:27:20.821Z,27.97
2022-11-22T18:30:06.702Z,24.87
2022-11-22T18:32:52.610Z,32.57
2022-11-22T18:35:39.197Z,24.53
2022-11-22T18:38:26.832Z,28.07
2022-11-22T18:41:16.718Z,28.03
2022-11-22T18:44:07.025Z,23.80
2022-11-22T18:46:54.559Z,25.80
2022-11-22T18:49:40.604Z,23.23
2022-11-22T18:52:26.693Z,18.83
2022-11-22T18:55:15.773Z,26.70
2022-11-22T18:58:02.202Z,25.97
2022-11-22T19:00:51.636Z,24.53
2022-11-22T19:03:38.690Z,28.90
2022-11-22T19:06:24.538Z,33.77
2022-11-22T19:09:11.401Z,22.40
2022-11-22T19:11:58.391Z,26.37
2022-11-22T19:14:44.633Z,27.43
2022-11-22T19:17:30.034Z,27.77
2022-11-22T19:20:47.263Z,25.93
2022-11-22T19:23:23.005Z,26.33
2022-11-22T19:26:14.340Z,20.23
2022-11-22T19:29:00.287Z,25.47
2022-11-22T19:31:47.323Z,35.57
2022-11-22T19:34:33.390Z,22.23
2022-11-22T19:37:19.064Z,28.17
2022-11-22T19:40:05.028Z,22.40
2022-11-22T19:42:50.994Z,25.97
2022-11-22T19:45:37.190Z,23.40
2022-11-22T19:48:22.956Z,28.93
2022-11-22T19:51:15.690Z,25.00
2022-11-22T19:54:02.701Z,21.87
2022-11-22T19:56:50.498Z,22.40
2022-11-22T19:59:37.156Z,30.17
2022-11-22T20:02:25.606Z,28.90
2022-11-22T20:05:14.024Z,26.27
2022-11-22T20:07:59.831Z,25.37
2022-11-22T20:10:45.422Z,27.60
2022-11-22T20:13:36.151Z,23.53
2022-11-22T20:16:27.014Z,35.50
2022-11-22T20:19:12.783Z,27.70
2022-11-22T20:22:03.027Z,24.40
2022-11-22T20:24:48.384Z,26.33
2022-11-22T20:27:33.865Z,30.93
2022-11-22T20:30:19.728Z,29.10
2022-11-22T20:33:05.950Z,31.03
2022-11-22T20:35:53.495Z,24.10
2022-11-22T20:38:41.459Z,29.43
2022-11-22T20:41:30.625Z,28.20
2022-11-22T20:44:18.205Z,22.63
2022-11-22T20:47:05.917Z,26.17
2022-11-22T20:49:55.438Z,27.53
2022-11-22T20:52:41.469Z,25.57
2022-11-22T20:55:26.684Z,29.47
2022-11-22T20:58:14.936Z,22.50
2022-11-22T21:01:06.568Z,24.23
2022-11-22T21:03:56.571Z,30.67
2022-11-22T21:06:41.864Z,28.23
2022-11-22T21:09:30.170Z,24.53
2022-11-22T21:12:19.203Z,25.63
2022-11-22T21:15:09.966Z,26.67
2022-11-22T21:18:17.653Z,25.27
2022-11-22T21:21:22.916Z,27.20
2022-11-22T21:24:13.586Z,27.13
2022-11-22T21:27:01.609Z,27.37
2022-11-22T21:29:49.018Z,33.97
2022-11-22T21:32:34.520Z,27.30
2022-11-22T21:35:19.917Z,28.93
2022-11-22T21:38:05.479Z,23.00
2022-11-22T21:41:24.300Z,21.10
2022-11-22T21:44:10.970Z,23.57
2022-11-22T21:46:58.692Z,29.87
2022-11-22T21:49:44.158Z,24.07
2022-11-22T21:52:31.512Z,26.40
2022-11-22T21:55:19.301Z,25.73
2022-11-22T21:58:07.720Z,21.90
2022-11-22T22:01:01.276Z,29.53
2022-11-22T22:03:47.001Z,26.00
2022-11-22T22:06:32.584Z,23.30
2022-11-22T22:09:18.315Z,28.23
2022-11-22T22:12:04.287Z,26.53
2022-11-22T22:14:49.546Z,28.10
2022-11-22T22:17:35.819Z,29.17
2022-11-22T22:20:24.793Z,35.53
2022-11-22T22:23:15.095Z,24.63
2022-11-22T22:26:02.430Z,29.80
2022-11-22T22:28:49.487Z,38.90
2022-11-22T22:31:37.103Z,30.33
2022-11-22T22:34:22.377Z,25.97
2022-11-22T22:37:07.968Z,28.20
2022-11-22T22:39:53.667Z,29.03
2022-11-22T22:42:41.236Z,29.67
2022-11-22T22:45:29.246Z,23.33
2022-11-22T22:48:14.608Z,28.63
2022-11-22T22:51:21.613Z,36.37
2022-11-22T22:54:09.572Z,29.53
2022-11-22T22:56:55.595Z,22.40
2022-11-22T22:59:42.230Z,31.23
2022-11-22T23:02:30.235Z,27.00
2022-11-22T23:05:15.925Z,33.50
2022-11-22T23:08:02.165Z,31.23
2022-11-22T23:10:47.606Z,33.13
2022-11-22T23:13:36.772Z,33.07
2022-11-22T23:16:22.464Z,28.20
2022-11-22T23:19:08.215Z,27.40
2022-11-22T23:21:59.127Z,30.17
2022-11-22T23:24:46.454Z,33.43
2022-11-22T23:27:34.164Z,39.23
2022-11-22T23:30:20.517Z,35.60
2022-11-22T23:33:09.016Z,30.37
2022-11-22T23:35:54.345Z,25.87
2022-11-22T23:38:40.224Z,31.50
2022-11-22T23:41:26.248Z,26.70
2022-11-22T23:44:14.468Z,36.70
2022-11-22T23:46:59.735Z,38.20
2022-11-22T23:49:46.128Z,34.27
2022-11-22T23:52:32.173Z,27.77
2022-11-22T23:55:18.087Z,34.50
2022-11-22T23:58:05.852Z,30.57
